sensor_id;sensor_type;location;lat;lon;timestamp;temperature;humidity
20400;DHT22;10359;53.596;22.520;2023-10-31T00:00:36;5.80;1.00
20400;DHT22;10359;53.596;22.520;2023-10-31T00:07:18;5.90;1.00
20400;DHT22;10359;53.596;22.520;2023-10-31T00:13:57;6.00;1.00
20400;DHT22;10359;53.596;22.520;2023-10-31T00:21:04;6.00;1.00
20400;DHT22;10359;53.596;22.520;2023-10-31T00:27:52;6.00;1.00
20400;DHT22;10359;53.596;22.520;2023-10-31T00:34:31;6.00;1.00
20400;DHT22;10359;53.596;22.520;2023-10-31T00:41:18;6.00;1.00
20400;DHT22;10359;53.596;22.520;2023-10-31T00:48:17;6.00;1.00
20400;DHT22;10359;53.596;22.520;2023-10-31T00:55:04;6.00;1.00
20400;DHT22;10359;53.596;22.520;2023-10-31T01:01:51;6.10;1.00
20400;DHT22;10359;53.596;22.520;2023-10-31T01:08:33;6.20;1.00
20400;DHT22;10359;53.596;22.520;2023-10-31T01:15:15;6.10;1.00
20400;DHT22;10359;53.596;22.520;2023-10-31T01:22:00;6.00;1.00
20400;DHT22;10359;53.596;22.520;2023-10-31T01:28:42;6.00;1.00
20400;DHT22;10359;53.596;22.520;2023-10-31T01:32:14;5.90;1.00
20400;DHT22;10359;53.596;22.520;2023-10-31T01:35:11;5.90;1.00
20400;DHT22;10359;53.596;22.520;2023-10-31T01:41:56;5.80;1.00
20400;DHT22;10359;53.596;22.520;2023-10-31T01:48:38;5.90;1.00
20400;DHT22;10359;53.596;22.520;2023-10-31T01:55:35;5.90;1.00
20400;DHT22;10359;53.596;22.520;2023-10-31T02:02:23;5.90;1.00
20400;DHT22;10359;53.596;22.520;2023-10-31T02:09:05;6.00;23.70
20400;DHT22;10359;53.596;22.520;2023-10-31T02:15:46;5.90;1.00
20400;DHT22;10359;53.596;22.520;2023-10-31T02:22:34;5.80;1.00
20400;DHT22;10359;53.596;22.520;2023-10-31T02:29:21;5.80;1.00
20400;DHT22;10359;53.596;22.520;2023-10-31T02:32:52;5.80;1.00
20400;DHT22;10359;53.596;22.520;2023-10-31T02:35:48;5.90;1.00
20400;DHT22;10359;53.596;22.520;2023-10-31T02:42:35;5.90;1.00
20400;DHT22;10359;53.596;22.520;2023-10-31T02:49:16;6.00;1.00
20400;DHT22;10359;53.596;22.520;2023-10-31T02:55:55;6.10;13.90
20400;DHT22;10359;53.596;22.520;2023-10-31T03:02:37;6.20;99.90
20400;DHT22;10359;53.596;22.520;2023-10-31T03:09:23;6.30;99.90
20400;DHT22;10359;53.596;22.520;2023-10-31T03:16:04;6.40;99.90
20400;DHT22;10359;53.596;22.520;2023-10-31T03:22:45;6.50;99.90
20400;DHT22;10359;53.596;22.520;2023-10-31T03:29:24;6.70;99.90
20400;DHT22;10359;53.596;22.520;2023-10-31T03:35:59;7.00;1.00
20400;DHT22;10359;53.596;22.520;2023-10-31T03:42:41;7.40;1.00
20400;DHT22;10359;53.596;22.520;2023-10-31T03:49:28;7.60;1.00
20400;DHT22;10359;53.596;22.520;2023-10-31T03:56:08;7.80;53.00
20400;DHT22;10359;53.596;22.520;2023-10-31T04:02:49;8.30;99.90
20400;DHT22;10359;53.596;22.520;2023-10-31T04:09:47;8.40;1.00
20400;DHT22;10359;53.596;22.520;2023-10-31T04:16:38;8.60;1.00
20400;DHT22;10359;53.596;22.520;2023-10-31T04:23:37;8.80;1.00
20400;DHT22;10359;53.596;22.520;2023-10-31T04:30:30;9.00;99.90
20400;DHT22;10359;53.596;22.520;2023-10-31T04:40:52;9.30;99.90
20400;DHT22;10359;53.596;22.520;2023-10-31T04:47:33;9.50;99.90
20400;DHT22;10359;53.596;22.520;2023-10-31T04:54:24;9.60;26.10
20400;DHT22;10359;53.596;22.520;2023-10-31T05:00:59;9.70;1.00
20400;DHT22;10359;53.596;22.520;2023-10-31T05:07:32;9.80;1.00
20400;DHT22;10359;53.596;22.520;2023-10-31T05:14:23;9.90;1.00
20400;DHT22;10359;53.596;22.520;2023-10-31T05:21:19;10.00;1.00
20400;DHT22;10359;53.596;22.520;2023-10-31T05:27:53;10.10;1.00
20400;DHT22;10359;53.596;22.520;2023-10-31T05:34:44;10.20;25.50
20400;DHT22;10359;53.596;22.520;2023-10-31T05:41:36;10.30;64.10
20400;DHT22;10359;53.596;22.520;2023-10-31T05:48:11;10.50;99.90
20400;DHT22;10359;53.596;22.520;2023-10-31T05:55:06;10.80;99.90
20400;DHT22;10359;53.596;22.520;2023-10-31T06:01:58;11.00;99.90
20400;DHT22;10359;53.596;22.520;2023-10-31T06:08:50;11.10;1.00
20400;DHT22;10359;53.596;22.520;2023-10-31T06:15:41;11.40;1.00
20400;DHT22;10359;53.596;22.520;2023-10-31T06:22:34;11.50;1.00
20400;DHT22;10359;53.596;22.520;2023-10-31T06:32:39;11.80;99.90
20400;DHT22;10359;53.596;22.520;2023-10-31T06:43:32;12.00;99.90
20400;DHT22;10359;53.596;22.520;2023-10-31T06:50:04;12.20;99.90
20400;DHT22;10359;53.596;22.520;2023-10-31T06:56:39;12.20;99.90
20400;DHT22;10359;53.596;22.520;2023-10-31T07:03:31;12.40;99.90
20400;DHT22;10359;53.596;22.520;2023-10-31T07:10:22;12.50;99.90
20400;DHT22;10359;53.596;22.520;2023-10-31T07:16:56;12.60;99.90
20400;DHT22;10359;53.596;22.520;2023-10-31T07:23:48;12.60;35.80
20400;DHT22;10359;53.596;22.520;2023-10-31T07:30:39;13.00;1.00
20400;DHT22;10359;53.596;22.520;2023-10-31T07:37:30;13.20;1.00
20400;DHT22;10359;53.596;22.520;2023-10-31T07:44:26;13.20;1.00
20400;DHT22;10359;53.596;22.520;2023-10-31T07:51:00;13.30;1.00
20400;DHT22;10359;53.596;22.520;2023-10-31T07:57:34;13.60;1.00
20400;DHT22;10359;53.596;22.520;2023-10-31T08:04:26;13.80;1.00
20400;DHT22;10359;53.596;22.520;2023-10-31T08:11:19;14.00;1.00
20400;DHT22;10359;53.596;22.520;2023-10-31T08:14:22;14.10;1.00
20400;DHT22;10359;53.596;22.520;2023-10-31T08:21:16;14.10;1.00
20400;DHT22;10359;53.596;22.520;2023-10-31T08:28:06;14.10;1.00
20400;DHT22;10359;53.596;22.520;2023-10-31T08:34:58;14.00;1.00
20400;DHT22;10359;53.596;22.520;2023-10-31T08:41:29;14.10;1.00
20400;DHT22;10359;53.596;22.520;2023-10-31T08:48:20;14.10;1.00
20400;DHT22;10359;53.596;22.520;2023-10-31T08:55:11;14.00;1.00
20400;DHT22;10359;53.596;22.520;2023-10-31T09:02:04;13.90;1.00
20400;DHT22;10359;53.596;22.520;2023-10-31T09:08:56;14.10;1.00
20400;DHT22;10359;53.596;22.520;2023-10-31T09:15:47;14.10;1.00
20400;DHT22;10359;53.596;22.520;2023-10-31T09:22:40;14.10;1.00
20400;DHT22;10359;53.596;22.520;2023-10-31T09:29:31;14.60;1.00
20400;DHT22;10359;53.596;22.520;2023-10-31T09:36:22;14.80;1.00
20400;DHT22;10359;53.596;22.520;2023-10-31T09:43:14;14.70;1.00
20400;DHT22;10359;53.596;22.520;2023-10-31T09:50:12;14.80;1.00
20400;DHT22;10359;53.596;22.520;2023-10-31T09:56:47;14.90;1.00
20400;DHT22;10359;53.596;22.520;2023-10-31T10:03:22;15.00;1.00
20400;DHT22;10359;53.596;22.520;2023-10-31T10:09:57;15.30;1.00
20400;DHT22;10359;53.596;22.520;2023-10-31T10:16:32;15.40;1.00
20400;DHT22;10359;53.596;22.520;2023-10-31T10:23:08;15.50;1.00
20400;DHT22;10359;53.596;22.520;2023-10-31T10:29:59;15.60;1.00
20400;DHT22;10359;53.596;22.520;2023-10-31T10:36:49;15.50;1.00
20400;DHT22;10359;53.596;22.520;2023-10-31T10:43:42;15.70;1.00
20400;DHT22;10359;53.596;22.520;2023-10-31T10:50:41;15.90;1.00
20400;DHT22;10359;53.596;22.520;2023-10-31T10:57:37;15.80;1.00
20400;DHT22;10359;53.596;22.520;2023-10-31T11:04:31;15.70;1.00
20400;DHT22;10359;53.596;22.520;2023-10-31T11:11:05;15.50;1.00
20400;DHT22;10359;53.596;22.520;2023-10-31T11:22:00;15.40;1.00
20400;DHT22;10359;53.596;22.520;2023-10-31T11:28:36;15.50;1.00
20400;DHT22;10359;53.596;22.520;2023-10-31T11:35:12;15.80;1.00
20400;DHT22;10359;53.596;22.520;2023-10-31T11:42:17;15.80;1.00
20400;DHT22;10359;53.596;22.520;2023-10-31T11:49:08;15.80;1.00
20400;DHT22;10359;53.596;22.520;2023-10-31T11:55:59;15.90;1.00
20400;DHT22;10359;53.596;22.520;2023-10-31T12:02:34;16.10;1.00
20400;DHT22;10359;53.596;22.520;2023-10-31T12:09:08;15.90;1.00
20400;DHT22;10359;53.596;22.520;2023-10-31T12:15:59;16.30;1.00
20400;DHT22;10359;53.596;22.520;2023-10-31T12:22:35;16.80;1.00
20400;DHT22;10359;53.596;22.520;2023-10-31T12:29:10;16.80;1.00
20400;DHT22;10359;53.596;22.520;2023-10-31T12:40:04;16.40;1.00
20400;DHT22;10359;53.596;22.520;2023-10-31T12:46:58;16.10;1.00
20400;DHT22;10359;53.596;22.520;2023-10-31T12:57:35;16.60;1.00
20400;DHT22;10359;53.596;22.520;2023-10-31T13:04:10;16.80;1.00
20400;DHT22;10359;53.596;22.520;2023-10-31T13:11:01;16.60;1.00
20400;DHT22;10359;53.596;22.520;2023-10-31T13:17:36;16.70;1.00
20400;DHT22;10359;53.596;22.520;2023-10-31T13:24:27;16.60;1.00
20400;DHT22;10359;53.596;22.520;2023-10-31T13:31:17;16.70;1.00
20400;DHT22;10359;53.596;22.520;2023-10-31T13:38:10;16.40;1.00
20400;DHT22;10359;53.596;22.520;2023-10-31T13:45:01;16.30;1.00
20400;DHT22;10359;53.596;22.520;2023-10-31T13:51:55;16.40;1.00
20400;DHT22;10359;53.596;22.520;2023-10-31T13:54:46;16.40;1.00
20400;DHT22;10359;53.596;22.520;2023-10-31T14:01:37;16.30;1.00
20400;DHT22;10359;53.596;22.520;2023-10-31T14:08:08;16.20;1.00
20400;DHT22;10359;53.596;22.520;2023-10-31T14:14:44;15.90;1.00
20400;DHT22;10359;53.596;22.520;2023-10-31T14:21:22;16.00;1.00
20400;DHT22;10359;53.596;22.520;2023-10-31T14:27:34;16.00;1.00
20400;DHT22;10359;53.596;22.520;2023-10-31T14:38:27;15.90;1.00
20400;DHT22;10359;53.596;22.520;2023-10-31T14:45:18;15.80;1.00
20400;DHT22;10359;53.596;22.520;2023-10-31T14:51:52;15.80;1.00
20400;DHT22;10359;53.596;22.520;2023-10-31T14:58:46;15.70;1.00
20400;DHT22;10359;53.596;22.520;2023-10-31T15:05:36;15.70;1.00
20400;DHT22;10359;53.596;22.520;2023-10-31T15:12:10;15.60;1.00
20400;DHT22;10359;53.596;22.520;2023-10-31T15:18:43;15.60;1.00
20400;DHT22;10359;53.596;22.520;2023-10-31T15:25:35;15.50;1.00
20400;DHT22;10359;53.596;22.520;2023-10-31T15:32:26;15.30;1.00
20400;DHT22;10359;53.596;22.520;2023-10-31T15:39:19;15.20;1.00
20400;DHT22;10359;53.596;22.520;2023-10-31T15:46:10;15.20;1.00
20400;DHT22;10359;53.596;22.520;2023-10-31T15:53:02;15.30;1.00
20400;DHT22;10359;53.596;22.520;2023-10-31T15:59:54;15.20;1.00
20400;DHT22;10359;53.596;22.520;2023-10-31T16:06:47;15.20;1.00
20400;DHT22;10359;53.596;22.520;2023-10-31T16:13:20;15.20;1.00
20400;DHT22;10359;53.596;22.520;2023-10-31T16:20:13;15.30;1.00
20400;DHT22;10359;53.596;22.520;2023-10-31T16:27:05;15.10;1.00
20400;DHT22;10359;53.596;22.520;2023-10-31T16:33:39;15.10;1.00
20400;DHT22;10359;53.596;22.520;2023-10-31T16:40:31;15.00;1.00
20400;DHT22;10359;53.596;22.520;2023-10-31T16:43:42;15.00;1.00
20400;DHT22;10359;53.596;22.520;2023-10-31T16:50:11;14.90;1.00
20400;DHT22;10359;53.596;22.520;2023-10-31T16:56:43;14.80;1.00
20400;DHT22;10359;53.596;22.520;2023-10-31T17:03:34;14.70;1.00
20400;DHT22;10359;53.596;22.520;2023-10-31T17:10:27;14.70;1.00
20400;DHT22;10359;53.596;22.520;2023-10-31T17:13:26;14.70;1.00
20400;DHT22;10359;53.596;22.520;2023-10-31T17:23:42;14.60;1.00
20400;DHT22;10359;53.596;22.520;2023-10-31T17:30:02;14.60;1.00
20400;DHT22;10359;53.596;22.520;2023-10-31T17:36:37;14.50;1.00
20400;DHT22;10359;53.596;22.520;2023-10-31T17:43:31;14.50;1.00
20400;DHT22;10359;53.596;22.520;2023-10-31T17:54:08;14.60;1.00
20400;DHT22;10359;53.596;22.520;2023-10-31T18:00:58;14.60;1.00
20400;DHT22;10359;53.596;22.520;2023-10-31T18:07:30;14.30;1.00
20400;DHT22;10359;53.596;22.520;2023-10-31T18:14:24;14.40;1.00
20400;DHT22;10359;53.596;22.520;2023-10-31T18:21:16;14.50;1.00
20400;DHT22;10359;53.596;22.520;2023-10-31T18:28:07;14.60;1.00
20400;DHT22;10359;53.596;22.520;2023-10-31T18:35:01;14.60;1.00
20400;DHT22;10359;53.596;22.520;2023-10-31T18:41:52;14.60;1.00
20400;DHT22;10359;53.596;22.520;2023-10-31T18:48:56;14.50;1.00
20400;DHT22;10359;53.596;22.520;2023-10-31T18:55:32;14.40;1.00
20400;DHT22;10359;53.596;22.520;2023-10-31T19:02:24;14.40;1.00
20400;DHT22;10359;53.596;22.520;2023-10-31T19:09:17;14.30;1.00
20400;DHT22;10359;53.596;22.520;2023-10-31T19:15:54;13.90;1.00
20400;DHT22;10359;53.596;22.520;2023-10-31T19:26:29;13.30;1.00
20400;DHT22;10359;53.596;22.520;2023-10-31T19:33:24;13.10;1.00
20400;DHT22;10359;53.596;22.520;2023-10-31T19:40:16;12.80;1.00
20400;DHT22;10359;53.596;22.520;2023-10-31T19:47:09;12.70;1.00
20400;DHT22;10359;53.596;22.520;2023-10-31T19:54:07;12.60;1.00
20400;DHT22;10359;53.596;22.520;2023-10-31T20:01:13;12.50;1.00
20400;DHT22;10359;53.596;22.520;2023-10-31T20:08:05;12.40;1.00
20400;DHT22;10359;53.596;22.520;2023-10-31T20:14:41;12.40;1.00
20400;DHT22;10359;53.596;22.520;2023-10-31T20:21:49;12.30;1.00
20400;DHT22;10359;53.596;22.520;2023-10-31T20:28:40;12.30;1.00
20400;DHT22;10359;53.596;22.520;2023-10-31T20:35:34;12.20;1.00
20400;DHT22;10359;53.596;22.520;2023-10-31T20:42:25;12.20;1.00
20400;DHT22;10359;53.596;22.520;2023-10-31T20:49:15;12.20;1.00
20400;DHT22;10359;53.596;22.520;2023-10-31T20:55:52;12.10;1.00
20400;DHT22;10359;53.596;22.520;2023-10-31T21:02:26;12.10;1.00
20400;DHT22;10359;53.596;22.520;2023-10-31T21:08:56;12.10;1.00
20400;DHT22;10359;53.596;22.520;2023-10-31T21:15:49;12.10;1.00
20400;DHT22;10359;53.596;22.520;2023-10-31T21:18:28;12.00;1.00
20400;DHT22;10359;53.596;22.520;2023-10-31T21:24:58;12.00;1.00
20400;DHT22;10359;53.596;22.520;2023-10-31T21:31:13;11.90;1.00
20400;DHT22;10359;53.596;22.520;2023-10-31T21:37:25;12.00;1.00
20400;DHT22;10359;53.596;22.520;2023-10-31T21:43:56;12.00;1.00
20400;DHT22;10359;53.596;22.520;2023-10-31T21:55:09;12.00;1.00
20400;DHT22;10359;53.596;22.520;2023-10-31T22:01:43;11.90;1.00
20400;DHT22;10359;53.596;22.520;2023-10-31T22:08:16;11.80;1.00
20400;DHT22;10359;53.596;22.520;2023-10-31T22:15:10;11.80;1.00
20400;DHT22;10359;53.596;22.520;2023-10-31T22:22:00;11.80;1.00
20400;DHT22;10359;53.596;22.520;2023-10-31T22:28:51;11.80;1.00
20400;DHT22;10359;53.596;22.520;2023-10-31T22:35:37;11.70;1.00
20400;DHT22;10359;53.596;22.520;2023-10-31T22:45:33;11.80;1.00
20400;DHT22;10359;53.596;22.520;2023-10-31T22:51:49;11.80;1.00
20400;DHT22;10359;53.596;22.520;2023-10-31T22:57:59;11.80;1.00
20400;DHT22;10359;53.596;22.520;2023-10-31T23:04:10;11.80;1.00
20400;DHT22;10359;53.596;22.520;2023-10-31T23:10:45;11.90;1.00
20400;DHT22;10359;53.596;22.520;2023-10-31T23:17:19;11.90;1.00
20400;DHT22;10359;53.596;22.520;2023-10-31T23:27:11;11.80;1.00
20400;DHT22;10359;53.596;22.520;2023-10-31T23:33:43;11.80;1.00
20400;DHT22;10359;53.596;22.520;2023-10-31T23:40:34;11.80;1.00
20400;DHT22;10359;53.596;22.520;2023-10-31T23:51:27;11.90;1.00
20400;DHT22;10359;53.596;22.520;2023-10-31T23:57:41;11.80;1.00
